sensor_id;sensor_type;location;lat;lon;timestamp;P1;durP1;ratioP1;P2;durP2;ratioP2
9520;SDS011;4798;41.574;23.734;2024-01-27T00:02:09;4.23;;;1.00;;
9520;SDS011;4798;41.574;23.734;2024-01-27T00:04:38;1.83;;;1.33;;
9520;SDS011;4798;41.574;23.734;2024-01-27T00:07:06;0.90;;;0.90;;
9520;SDS011;4798;41.574;23.734;2024-01-27T00:09:35;18.97;;;1.20;;
9520;SDS011;4798;41.574;23.734;2024-01-27T00:12:04;2.00;;;1.63;;
9520;SDS011;4798;41.574;23.734;2024-01-27T00:14:37;1.00;;;1.00;;
9520;SDS011;4798;41.574;23.734;2024-01-27T00:17:06;1.47;;;1.47;;
9520;SDS011;4798;41.574;23.734;2024-01-27T00:19:34;1.17;;;0.90;;
9520;SDS011;4798;41.574;23.734;2024-01-27T00:22:07;1.77;;;1.67;;
9520;SDS011;4798;41.574;23.734;2024-01-27T00:24:36;0.77;;;0.53;;
9520;SDS011;4798;41.574;23.734;2024-01-27T00:27:04;2.20;;;1.60;;
9520;SDS011;4798;41.574;23.734;2024-01-27T00:29:34;1.17;;;0.90;;
9520;SDS011;4798;41.574;23.734;2024-01-27T00:32:03;3.60;;;0.80;;
9520;SDS011;4798;41.574;23.734;2024-01-27T00:34:32;1.03;;;0.90;;
9520;SDS011;4798;41.574;23.734;2024-01-27T00:37:00;1.10;;;1.03;;
9520;SDS011;4798;41.574;23.734;2024-01-27T00:39:31;1.30;;;1.27;;
9520;SDS011;4798;41.574;23.734;2024-01-27T00:42:00;0.60;;;0.57;;
9520;SDS011;4798;41.574;23.734;2024-01-27T00:44:28;7.50;;;2.70;;
9520;SDS011;4798;41.574;23.734;2024-01-27T00:46:59;1.37;;;1.27;;
9520;SDS011;4798;41.574;23.734;2024-01-27T00:49:27;1.90;;;0.60;;
9520;SDS011;4798;41.574;23.734;2024-01-27T00:51:56;0.60;;;0.50;;
9520;SDS011;4798;41.574;23.734;2024-01-27T00:54:24;1.63;;;1.63;;
9520;SDS011;4798;41.574;23.734;2024-01-27T00:56:54;2.13;;;0.87;;
9520;SDS011;4798;41.574;23.734;2024-01-27T00:59:22;0.60;;;0.57;;
9520;SDS011;4798;41.574;23.734;2024-01-27T01:01:51;1.03;;;1.03;;
9520;SDS011;4798;41.574;23.734;2024-01-27T01:04:21;2.27;;;0.60;;
9520;SDS011;4798;41.574;23.734;2024-01-27T01:06:50;3.07;;;0.70;;
9520;SDS011;4798;41.574;23.734;2024-01-27T01:09:18;1.17;;;0.80;;
9520;SDS011;4798;41.574;23.734;2024-01-27T01:11:47;1.63;;;0.53;;
9520;SDS011;4798;41.574;23.734;2024-01-27T01:14:16;1.07;;;0.80;;
9520;SDS011;4798;41.574;23.734;2024-01-27T01:16:45;0.60;;;0.60;;
9520;SDS011;4798;41.574;23.734;2024-01-27T01:19:13;1.07;;;0.97;;
9520;SDS011;4798;41.574;23.734;2024-01-27T01:21:43;1.63;;;1.53;;
9520;SDS011;4798;41.574;23.734;2024-01-27T01:24:12;1.27;;;0.73;;
9520;SDS011;4798;41.574;23.734;2024-01-27T01:26:41;1.07;;;1.07;;
9520;SDS011;4798;41.574;23.734;2024-01-27T01:29:09;0.30;;;0.30;;
9520;SDS011;4798;41.574;23.734;2024-01-27T01:31:38;0.70;;;0.70;;
9520;SDS011;4798;41.574;23.734;2024-01-27T01:34:09;0.97;;;0.37;;
9520;SDS011;4798;41.574;23.734;2024-01-27T01:36:37;1.13;;;0.87;;
9520;SDS011;4798;41.574;23.734;2024-01-27T01:39:07;0.40;;;0.30;;
9520;SDS011;4798;41.574;23.734;2024-01-27T01:41:40;0.77;;;0.77;;
9520;SDS011;4798;41.574;23.734;2024-01-27T01:44:09;1.70;;;0.40;;
9520;SDS011;4798;41.574;23.734;2024-01-27T01:46:38;1.37;;;0.30;;
9520;SDS011;4798;41.574;23.734;2024-01-27T01:49:06;0.57;;;0.47;;
9520;SDS011;4798;41.574;23.734;2024-01-27T01:51:35;0.70;;;0.60;;
9520;SDS011;4798;41.574;23.734;2024-01-27T01:54:04;2.10;;;1.20;;
9520;SDS011;4798;41.574;23.734;2024-01-27T01:56:36;4.63;;;2.20;;
9520;SDS011;4798;41.574;23.734;2024-01-27T01:59:05;0.70;;;0.70;;
9520;SDS011;4798;41.574;23.734;2024-01-27T02:01:33;1.20;;;1.10;;
9520;SDS011;4798;41.574;23.734;2024-01-27T02:04:03;1.60;;;1.50;;
9520;SDS011;4798;41.574;23.734;2024-01-27T02:06:32;1.80;;;0.57;;
9520;SDS011;4798;41.574;23.734;2024-01-27T02:09:01;2.43;;;1.37;;
9520;SDS011;4798;41.574;23.734;2024-01-27T02:11:31;2.37;;;2.17;;
9520;SDS011;4798;41.574;23.734;2024-01-27T02:14:02;1.80;;;1.70;;
9520;SDS011;4798;41.574;23.734;2024-01-27T02:16:31;2.00;;;1.90;;
9520;SDS011;4798;41.574;23.734;2024-01-27T02:18:59;1.20;;;0.70;;
9520;SDS011;4798;41.574;23.734;2024-01-27T02:21:28;0.50;;;0.50;;
9520;SDS011;4798;41.574;23.734;2024-01-27T02:23:57;1.17;;;0.77;;
9520;SDS011;4798;41.574;23.734;2024-01-27T02:26:27;0.93;;;0.83;;
9520;SDS011;4798;41.574;23.734;2024-01-27T02:28:56;1.03;;;0.83;;
9520;SDS011;4798;41.574;23.734;2024-01-27T02:31:24;1.77;;;1.00;;
9520;SDS011;4798;41.574;23.734;2024-01-27T02:33:53;1.43;;;1.30;;
9520;SDS011;4798;41.574;23.734;2024-01-27T02:36:22;1.10;;;1.10;;
9520;SDS011;4798;41.574;23.734;2024-01-27T02:38:51;1.37;;;1.27;;
9520;SDS011;4798;41.574;23.734;2024-01-27T02:41:20;3.23;;;0.97;;
9520;SDS011;4798;41.574;23.734;2024-01-27T02:43:50;1.73;;;0.90;;
9520;SDS011;4798;41.574;23.734;2024-01-27T02:46:19;2.80;;;0.87;;
9520;SDS011;4798;41.574;23.734;2024-01-27T02:48:47;1.93;;;0.67;;
9520;SDS011;4798;41.574;23.734;2024-01-27T02:51:18;2.93;;;0.57;;
9520;SDS011;4798;41.574;23.734;2024-01-27T02:53:48;2.10;;;1.90;;
9520;SDS011;4798;41.574;23.734;2024-01-27T02:56:17;1.00;;;1.00;;
9520;SDS011;4798;41.574;23.734;2024-01-27T02:58:45;1.20;;;1.20;;
9520;SDS011;4798;41.574;23.734;2024-01-27T03:01:15;1.33;;;0.90;;
9520;SDS011;4798;41.574;23.734;2024-01-27T03:03:44;1.73;;;0.70;;
9520;SDS011;4798;41.574;23.734;2024-01-27T03:06:13;0.93;;;0.93;;
9520;SDS011;4798;41.574;23.734;2024-01-27T03:08:42;1.30;;;0.83;;
9520;SDS011;4798;41.574;23.734;2024-01-27T03:11:10;1.80;;;0.70;;
9520;SDS011;4798;41.574;23.734;2024-01-27T03:13:39;0.93;;;0.93;;
9520;SDS011;4798;41.574;23.734;2024-01-27T03:16:12;0.50;;;0.40;;
9520;SDS011;4798;41.574;23.734;2024-01-27T03:18:42;0.80;;;0.80;;
9520;SDS011;4798;41.574;23.734;2024-01-27T03:21:11;1.37;;;1.37;;
9520;SDS011;4798;41.574;23.734;2024-01-27T03:23:40;3.33;;;0.73;;
9520;SDS011;4798;41.574;23.734;2024-01-27T03:26:08;2.50;;;1.07;;
9520;SDS011;4798;41.574;23.734;2024-01-27T03:28:37;1.30;;;1.30;;
9520;SDS011;4798;41.574;23.734;2024-01-27T03:31:05;2.30;;;1.27;;
9520;SDS011;4798;41.574;23.734;2024-01-27T03:33:34;0.67;;;0.67;;
9520;SDS011;4798;41.574;23.734;2024-01-27T03:36:05;1.00;;;0.83;;
9520;SDS011;4798;41.574;23.734;2024-01-27T03:38:37;1.17;;;1.07;;
9520;SDS011;4798;41.574;23.734;2024-01-27T03:41:06;2.70;;;1.63;;
9520;SDS011;4798;41.574;23.734;2024-01-27T03:43:35;1.60;;;1.50;;
9520;SDS011;4798;41.574;23.734;2024-01-27T03:46:04;4.33;;;1.77;;
9520;SDS011;4798;41.574;23.734;2024-01-27T03:48:32;1.27;;;1.17;;
9520;SDS011;4798;41.574;23.734;2024-01-27T03:51:02;3.10;;;1.17;;
9520;SDS011;4798;41.574;23.734;2024-01-27T03:53:32;1.60;;;1.17;;
9520;SDS011;4798;41.574;23.734;2024-01-27T03:56:01;5.73;;;1.47;;
9520;SDS011;4798;41.574;23.734;2024-01-27T03:58:31;1.47;;;1.37;;
9520;SDS011;4798;41.574;23.734;2024-01-27T04:00:59;2.83;;;2.23;;
9520;SDS011;4798;41.574;23.734;2024-01-27T04:03:28;0.67;;;0.67;;
9520;SDS011;4798;41.574;23.734;2024-01-27T04:05:57;2.23;;;2.03;;
9520;SDS011;4798;41.574;23.734;2024-01-27T04:08:26;1.83;;;1.00;;
9520;SDS011;4798;41.574;23.734;2024-01-27T04:10:56;1.77;;;1.33;;
9520;SDS011;4798;41.574;23.734;2024-01-27T04:13:24;0.60;;;0.50;;
9520;SDS011;4798;41.574;23.734;2024-01-27T04:15:53;1.33;;;1.30;;
9520;SDS011;4798;41.574;23.734;2024-01-27T04:18:23;4.23;;;0.93;;
9520;SDS011;4798;41.574;23.734;2024-01-27T04:20:52;2.73;;;0.83;;
9520;SDS011;4798;41.574;23.734;2024-01-27T04:23:21;0.83;;;0.83;;
9520;SDS011;4798;41.574;23.734;2024-01-27T04:25:49;1.03;;;0.77;;
9520;SDS011;4798;41.574;23.734;2024-01-27T04:28:19;1.63;;;1.53;;
9520;SDS011;4798;41.574;23.734;2024-01-27T04:30:48;3.70;;;1.13;;
9520;SDS011;4798;41.574;23.734;2024-01-27T04:33:17;1.23;;;1.13;;
9520;SDS011;4798;41.574;23.734;2024-01-27T04:35:46;2.10;;;1.40;;
9520;SDS011;4798;41.574;23.734;2024-01-27T04:38:14;1.27;;;1.17;;
9520;SDS011;4798;41.574;23.734;2024-01-27T04:40:43;1.20;;;1.20;;
9520;SDS011;4798;41.574;23.734;2024-01-27T04:43:14;2.03;;;1.83;;
9520;SDS011;4798;41.574;23.734;2024-01-27T04:45:46;1.07;;;0.97;;
9520;SDS011;4798;41.574;23.734;2024-01-27T04:48:15;5.10;;;1.73;;
9520;SDS011;4798;41.574;23.734;2024-01-27T04:50:44;1.83;;;1.73;;
9520;SDS011;4798;41.574;23.734;2024-01-27T04:53:13;0.50;;;0.50;;
9520;SDS011;4798;41.574;23.734;2024-01-27T04:55:42;3.60;;;3.07;;
9520;SDS011;4798;41.574;23.734;2024-01-27T04:58:10;4.90;;;1.93;;
9520;SDS011;4798;41.574;23.734;2024-01-27T05:00:39;7.40;;;3.80;;
9520;SDS011;4798;41.574;23.734;2024-01-27T05:03:09;6.60;;;3.83;;
9520;SDS011;4798;41.574;23.734;2024-01-27T05:05:41;3.83;;;3.40;;
9520;SDS011;4798;41.574;23.734;2024-01-27T05:08:10;5.63;;;4.07;;
9520;SDS011;4798;41.574;23.734;2024-01-27T05:10:39;6.53;;;1.93;;
9520;SDS011;4798;41.574;23.734;2024-01-27T05:13:07;3.97;;;3.53;;
9520;SDS011;4798;41.574;23.734;2024-01-27T05:15:36;9.30;;;3.47;;
9520;SDS011;4798;41.574;23.734;2024-01-27T05:18:05;17.43;;;2.17;;
9520;SDS011;4798;41.574;23.734;2024-01-27T05:20:36;2.70;;;2.47;;
9520;SDS011;4798;41.574;23.734;2024-01-27T05:23:04;2.80;;;2.03;;
9520;SDS011;4798;41.574;23.734;2024-01-27T05:25:33;3.40;;;0.90;;
9520;SDS011;4798;41.574;23.734;2024-01-27T05:28:01;2.20;;;1.90;;
9520;SDS011;4798;41.574;23.734;2024-01-27T05:30:30;2.60;;;0.90;;
9520;SDS011;4798;41.574;23.734;2024-01-27T05:32:59;3.40;;;2.30;;
9520;SDS011;4798;41.574;23.734;2024-01-27T05:35:28;1.13;;;0.90;;
9520;SDS011;4798;41.574;23.734;2024-01-27T05:37:58;1.03;;;1.03;;
9520;SDS011;4798;41.574;23.734;2024-01-27T05:40:26;6.43;;;2.60;;
9520;SDS011;4798;41.574;23.734;2024-01-27T05:42:55;2.20;;;2.00;;
9520;SDS011;4798;41.574;23.734;2024-01-27T05:45:23;2.13;;;1.23;;
9520;SDS011;4798;41.574;23.734;2024-01-27T05:47:53;3.10;;;1.70;;
9520;SDS011;4798;41.574;23.734;2024-01-27T05:50:22;3.00;;;2.00;;
9520;SDS011;4798;41.574;23.734;2024-01-27T05:52:50;1.80;;;1.70;;
9520;SDS011;4798;41.574;23.734;2024-01-27T05:55:21;2.13;;;2.03;;
9520;SDS011;4798;41.574;23.734;2024-01-27T05:57:49;2.23;;;1.50;;
9520;SDS011;4798;41.574;23.734;2024-01-27T06:00:18;3.53;;;2.10;;
9520;SDS011;4798;41.574;23.734;2024-01-27T06:02:47;5.67;;;3.43;;
9520;SDS011;4798;41.574;23.734;2024-01-27T06:05:15;2.30;;;2.20;;
9520;SDS011;4798;41.574;23.734;2024-01-27T06:07:44;2.37;;;2.20;;
9520;SDS011;4798;41.574;23.734;2024-01-27T06:10:14;2.50;;;2.13;;
9520;SDS011;4798;41.574;23.734;2024-01-27T06:12:46;23.77;;;4.63;;
9520;SDS011;4798;41.574;23.734;2024-01-27T06:15:15;4.27;;;1.50;;
9520;SDS011;4798;41.574;23.734;2024-01-27T06:17:43;1.77;;;1.67;;
9520;SDS011;4798;41.574;23.734;2024-01-27T06:20:12;4.33;;;3.47;;
9520;SDS011;4798;41.574;23.734;2024-01-27T06:22:43;3.77;;;3.00;;
9520;SDS011;4798;41.574;23.734;2024-01-27T06:25:11;8.50;;;3.80;;
9520;SDS011;4798;41.574;23.734;2024-01-27T06:27:40;4.73;;;3.10;;
9520;SDS011;4798;41.574;23.734;2024-01-27T06:30:11;3.40;;;2.00;;
9520;SDS011;4798;41.574;23.734;2024-01-27T06:32:40;6.20;;;3.17;;
9520;SDS011;4798;41.574;23.734;2024-01-27T06:35:09;3.77;;;2.70;;
9520;SDS011;4798;41.574;23.734;2024-01-27T06:37:38;3.50;;;3.27;;
9520;SDS011;4798;41.574;23.734;2024-01-27T06:40:07;4.73;;;4.33;;
9520;SDS011;4798;41.574;23.734;2024-01-27T06:42:37;11.80;;;3.47;;
9520;SDS011;4798;41.574;23.734;2024-01-27T06:45:05;4.63;;;2.40;;
9520;SDS011;4798;41.574;23.734;2024-01-27T06:47:36;3.27;;;3.13;;
9520;SDS011;4798;41.574;23.734;2024-01-27T06:50:07;6.43;;;4.20;;
9520;SDS011;4798;41.574;23.734;2024-01-27T06:52:36;11.77;;;5.33;;
9520;SDS011;4798;41.574;23.734;2024-01-27T06:55:05;3.70;;;3.33;;
9520;SDS011;4798;41.574;23.734;2024-01-27T06:57:34;5.83;;;3.77;;
9520;SDS011;4798;41.574;23.734;2024-01-27T07:00:03;13.10;;;3.00;;
9520;SDS011;4798;41.574;23.734;2024-01-27T07:02:32;4.00;;;2.33;;
9520;SDS011;4798;41.574;23.734;2024-01-27T07:05:02;4.00;;;3.20;;
9520;SDS011;4798;41.574;23.734;2024-01-27T07:07:32;10.77;;;1.77;;
9520;SDS011;4798;41.574;23.734;2024-01-27T07:10:01;1.77;;;1.67;;
9520;SDS011;4798;41.574;23.734;2024-01-27T07:12:30;1.03;;;0.73;;
9520;SDS011;4798;41.574;23.734;2024-01-27T07:14:58;8.03;;;1.67;;
9520;SDS011;4798;41.574;23.734;2024-01-27T07:17:28;4.53;;;1.80;;
9520;SDS011;4798;41.574;23.734;2024-01-27T07:19:57;4.27;;;3.53;;
9520;SDS011;4798;41.574;23.734;2024-01-27T07:22:28;3.97;;;3.30;;
9520;SDS011;4798;41.574;23.734;2024-01-27T07:24:56;12.90;;;2.80;;
9520;SDS011;4798;41.574;23.734;2024-01-27T07:27:25;1.93;;;1.83;;
9520;SDS011;4798;41.574;23.734;2024-01-27T07:29:53;7.00;;;4.23;;
9520;SDS011;4798;41.574;23.734;2024-01-27T07:32:22;17.33;;;3.30;;
9520;SDS011;4798;41.574;23.734;2024-01-27T07:34:52;3.63;;;3.43;;
9520;SDS011;4798;41.574;23.734;2024-01-27T07:37:21;3.40;;;2.67;;
9520;SDS011;4798;41.574;23.734;2024-01-27T07:39:51;4.57;;;2.63;;
9520;SDS011;4798;41.574;23.734;2024-01-27T07:42:20;2.00;;;1.90;;
9520;SDS011;4798;41.574;23.734;2024-01-27T07:44:48;14.30;;;1.40;;
9520;SDS011;4798;41.574;23.734;2024-01-27T07:47:17;1.43;;;1.43;;
9520;SDS011;4798;41.574;23.734;2024-01-27T07:49:46;3.90;;;0.83;;
9520;SDS011;4798;41.574;23.734;2024-01-27T07:52:16;2.07;;;1.67;;
9520;SDS011;4798;41.574;23.734;2024-01-27T07:54:45;2.33;;;2.13;;
9520;SDS011;4798;41.574;23.734;2024-01-27T07:57:15;4.30;;;2.10;;
9520;SDS011;4798;41.574;23.734;2024-01-27T07:59:43;3.50;;;1.90;;
9520;SDS011;4798;41.574;23.734;2024-01-27T08:02:12;6.10;;;2.80;;
9520;SDS011;4798;41.574;23.734;2024-01-27T08:04:41;3.83;;;1.27;;
9520;SDS011;4798;41.574;23.734;2024-01-27T08:07:09;4.70;;;3.03;;
9520;SDS011;4798;41.574;23.734;2024-01-27T08:09:41;2.00;;;1.90;;
9520;SDS011;4798;41.574;23.734;2024-01-27T08:12:10;2.57;;;2.37;;
9520;SDS011;4798;41.574;23.734;2024-01-27T08:14:40;2.93;;;2.80;;
9520;SDS011;4798;41.574;23.734;2024-01-27T08:17:09;4.93;;;2.17;;
9520;SDS011;4798;41.574;23.734;2024-01-27T08:19:37;1.63;;;1.53;;
9520;SDS011;4798;41.574;23.734;2024-01-27T08:22:06;2.53;;;2.37;;
9520;SDS011;4798;41.574;23.734;2024-01-27T08:24:36;1.20;;;1.10;;
9520;SDS011;4798;41.574;23.734;2024-01-27T08:27:05;1.13;;;1.13;;
9520;SDS011;4798;41.574;23.734;2024-01-27T08:29:33;1.60;;;1.50;;
9520;SDS011;4798;41.574;23.734;2024-01-27T08:32:04;2.47;;;2.30;;
9520;SDS011;4798;41.574;23.734;2024-01-27T08:34:33;1.53;;;1.47;;
9520;SDS011;4798;41.574;23.734;2024-01-27T08:37:02;0.50;;;0.50;;
9520;SDS011;4798;41.574;23.734;2024-01-27T08:39:30;5.77;;;1.23;;
9520;SDS011;4798;41.574;23.734;2024-01-27T08:41:59;2.40;;;1.57;;
9520;SDS011;4798;41.574;23.734;2024-01-27T08:44:28;2.50;;;1.77;;
9520;SDS011;4798;41.574;23.734;2024-01-27T08:46:56;8.53;;;2.80;;
9520;SDS011;4798;41.574;23.734;2024-01-27T08:49:29;10.43;;;3.37;;
9520;SDS011;4798;41.574;23.734;2024-01-27T08:51:58;1.60;;;1.50;;
9520;SDS011;4798;41.574;23.734;2024-01-27T08:54:27;2.80;;;1.57;;
9520;SDS011;4798;41.574;23.734;2024-01-27T08:56:56;3.93;;;1.83;;
9520;SDS011;4798;41.574;23.734;2024-01-27T08:59:25;2.07;;;1.73;;
9520;SDS011;4798;41.574;23.734;2024-01-27T09:01:53;1.80;;;1.70;;
9520;SDS011;4798;41.574;23.734;2024-01-27T09:04:22;2.83;;;2.57;;
9520;SDS011;4798;41.574;23.734;2024-01-27T09:06:52;4.00;;;2.37;;
9520;SDS011;4798;41.574;23.734;2024-01-27T09:09:21;5.70;;;2.33;;
9520;SDS011;4798;41.574;23.734;2024-01-27T09:11:49;1.50;;;1.00;;
9520;SDS011;4798;41.574;23.734;2024-01-27T09:14:18;5.43;;;1.33;;
9520;SDS011;4798;41.574;23.734;2024-01-27T09:16:47;3.57;;;2.50;;
9520;SDS011;4798;41.574;23.734;2024-01-27T09:19:15;2.83;;;0.87;;
9520;SDS011;4798;41.574;23.734;2024-01-27T09:21:44;2.53;;;0.90;;
9520;SDS011;4798;41.574;23.734;2024-01-27T09:24:14;3.53;;;3.40;;
9520;SDS011;4798;41.574;23.734;2024-01-27T09:26:43;3.57;;;1.83;;
9520;SDS011;4798;41.574;23.734;2024-01-27T09:29:12;4.80;;;1.27;;
9520;SDS011;4798;41.574;23.734;2024-01-27T09:31:40;1.80;;;0.67;;
9520;SDS011;4798;41.574;23.734;2024-01-27T09:34:09;1.37;;;1.27;;
9520;SDS011;4798;41.574;23.734;2024-01-27T09:36:38;4.30;;;0.90;;
9520;SDS011;4798;41.574;23.734;2024-01-27T09:39:07;3.30;;;2.10;;
9520;SDS011;4798;41.574;23.734;2024-01-27T09:41:37;1.60;;;1.50;;
9520;SDS011;4798;41.574;23.734;2024-01-27T09:44:07;3.50;;;1.27;;
9520;SDS011;4798;41.574;23.734;2024-01-27T09:46:35;1.50;;;1.37;;
9520;SDS011;4798;41.574;23.734;2024-01-27T09:49:04;1.63;;;1.33;;
9520;SDS011;4798;41.574;23.734;2024-01-27T09:51:33;1.97;;;1.10;;
9520;SDS011;4798;41.574;23.734;2024-01-27T09:54:02;1.80;;;1.70;;
9520;SDS011;4798;41.574;23.734;2024-01-27T09:56:31;0.60;;;0.60;;
9520;SDS011;4798;41.574;23.734;2024-01-27T09:59:02;1.27;;;1.07;;
9520;SDS011;4798;41.574;23.734;2024-01-27T10:01:33;1.57;;;1.47;;
9520;SDS011;4798;41.574;23.734;2024-01-27T10:04:05;1.40;;;1.30;;
9520;SDS011;4798;41.574;23.734;2024-01-27T10:06:36;2.87;;;1.83;;
9520;SDS011;4798;41.574;23.734;2024-01-27T10:09:06;1.63;;;1.53;;
9520;SDS011;4798;41.574;23.734;2024-01-27T10:11:36;2.50;;;1.33;;
9520;SDS011;4798;41.574;23.734;2024-01-27T10:14:11;0.90;;;0.70;;
9520;SDS011;4798;41.574;23.734;2024-01-27T10:16:40;1.63;;;1.20;;
9520;SDS011;4798;41.574;23.734;2024-01-27T10:19:12;1.53;;;1.43;;
9520;SDS011;4798;41.574;23.734;2024-01-27T10:21:44;2.00;;;0.60;;
9520;SDS011;4798;41.574;23.734;2024-01-27T10:24:13;3.40;;;0.93;;
9520;SDS011;4798;41.574;23.734;2024-01-27T10:26:42;4.83;;;1.07;;
9520;SDS011;4798;41.574;23.734;2024-01-27T10:29:12;6.27;;;2.03;;
9520;SDS011;4798;41.574;23.734;2024-01-27T10:31:41;1.67;;;1.27;;
9520;SDS011;4798;41.574;23.734;2024-01-27T10:34:09;2.00;;;0.73;;
9520;SDS011;4798;41.574;23.734;2024-01-27T10:36:42;1.37;;;1.10;;
9520;SDS011;4798;41.574;23.734;2024-01-27T10:39:18;1.07;;;0.97;;
9520;SDS011;4798;41.574;23.734;2024-01-27T10:41:48;5.87;;;2.67;;
9520;SDS011;4798;41.574;23.734;2024-01-27T10:44:19;1.67;;;0.80;;
9520;SDS011;4798;41.574;23.734;2024-01-27T10:46:49;0.80;;;0.53;;
9520;SDS011;4798;41.574;23.734;2024-01-27T10:49:18;3.70;;;0.90;;
9520;SDS011;4798;41.574;23.734;2024-01-27T10:51:49;2.10;;;0.40;;
9520;SDS011;4798;41.574;23.734;2024-01-27T10:54:23;1.63;;;0.50;;
9520;SDS011;4798;41.574;23.734;2024-01-27T10:56:55;0.70;;;0.40;;
9520;SDS011;4798;41.574;23.734;2024-01-27T10:59:27;0.60;;;0.60;;
9520;SDS011;4798;41.574;23.734;2024-01-27T11:01:56;1.63;;;0.63;;
9520;SDS011;4798;41.574;23.734;2024-01-27T11:04:25;0.53;;;0.40;;
9520;SDS011;4798;41.574;23.734;2024-01-27T11:06:56;0.70;;;0.40;;
9520;SDS011;4798;41.574;23.734;2024-01-27T11:09:26;0.53;;;0.53;;
9520;SDS011;4798;41.574;23.734;2024-01-27T11:11:57;0.60;;;0.40;;
9520;SDS011;4798;41.574;23.734;2024-01-27T11:14:29;0.50;;;0.30;;
9520;SDS011;4798;41.574;23.734;2024-01-27T11:16:57;0.40;;;0.30;;
9520;SDS011;4798;41.574;23.734;2024-01-27T11:19:26;2.00;;;0.30;;
9520;SDS011;4798;41.574;23.734;2024-01-27T11:22:04;0.40;;;0.30;;
9520;SDS011;4798;41.574;23.734;2024-01-27T11:24:33;0.30;;;0.30;;
9520;SDS011;4798;41.574;23.734;2024-01-27T11:27:02;0.40;;;0.20;;
9520;SDS011;4798;41.574;23.734;2024-01-27T11:29:32;0.30;;;0.20;;
9520;SDS011;4798;41.574;23.734;2024-01-27T11:32:02;0.40;;;0.30;;
9520;SDS011;4798;41.574;23.734;2024-01-27T11:34:41;0.30;;;0.20;;
9520;SDS011;4798;41.574;23.734;2024-01-27T11:37:12;0.40;;;0.30;;
9520;SDS011;4798;41.574;23.734;2024-01-27T11:39:44;0.60;;;0.40;;
9520;SDS011;4798;41.574;23.734;2024-01-27T11:42:13;0.30;;;0.20;;
9520;SDS011;4798;41.574;23.734;2024-01-27T11:44:44;0.57;;;0.30;;
9520;SDS011;4798;41.574;23.734;2024-01-27T11:47:16;0.40;;;0.30;;
9520;SDS011;4798;41.574;23.734;2024-01-27T11:49:50;0.40;;;0.30;;
9520;SDS011;4798;41.574;23.734;2024-01-27T11:52:20;0.30;;;0.20;;
9520;SDS011;4798;41.574;23.734;2024-01-27T11:54:53;0.40;;;0.40;;
9520;SDS011;4798;41.574;23.734;2024-01-27T11:57:22;0.40;;;0.40;;
9520;SDS011;4798;41.574;23.734;2024-01-27T11:59:53;0.40;;;0.30;;
9520;SDS011;4798;41.574;23.734;2024-01-27T12:02:23;0.40;;;0.20;;
9520;SDS011;4798;41.574;23.734;2024-01-27T12:04:51;0.30;;;0.20;;
9520;SDS011;4798;41.574;23.734;2024-01-27T12:07:20;0.40;;;0.30;;
9520;SDS011;4798;41.574;23.734;2024-01-27T12:09:49;0.40;;;0.30;;
9520;SDS011;4798;41.574;23.734;2024-01-27T12:12:18;0.40;;;0.30;;
9520;SDS011;4798;41.574;23.734;2024-01-27T12:14:48;0.40;;;0.30;;
9520;SDS011;4798;41.574;23.734;2024-01-27T12:17:19;0.30;;;0.23;;
9520;SDS011;4798;41.574;23.734;2024-01-27T12:19:52;0.30;;;0.20;;
9520;SDS011;4798;41.574;23.734;2024-01-27T12:22:22;0.40;;;0.30;;
9520;SDS011;4798;41.574;23.734;2024-01-27T12:24:53;0.40;;;0.30;;
9520;SDS011;4798;41.574;23.734;2024-01-27T12:27:22;0.30;;;0.20;;
9520;SDS011;4798;41.574;23.734;2024-01-27T12:29:51;0.30;;;0.20;;
9520;SDS011;4798;41.574;23.734;2024-01-27T12:32:21;0.50;;;0.40;;
9520;SDS011;4798;41.574;23.734;2024-01-27T12:34:49;0.30;;;0.20;;
9520;SDS011;4798;41.574;23.734;2024-01-27T12:37:20;0.40;;;0.30;;
9520;SDS011;4798;41.574;23.734;2024-01-27T12:39:50;0.40;;;0.30;;
9520;SDS011;4798;41.574;23.734;2024-01-27T12:42:19;0.30;;;0.20;;
9520;SDS011;4798;41.574;23.734;2024-01-27T12:44:47;0.47;;;0.30;;
9520;SDS011;4798;41.574;23.734;2024-01-27T12:47:16;0.53;;;0.53;;
9520;SDS011;4798;41.574;23.734;2024-01-27T12:49:48;0.50;;;0.47;;
9520;SDS011;4798;41.574;23.734;2024-01-27T12:52:17;0.53;;;0.30;;
9520;SDS011;4798;41.574;23.734;2024-01-27T12:54:46;0.40;;;0.30;;
9520;SDS011;4798;41.574;23.734;2024-01-27T12:57:14;0.40;;;0.30;;
9520;SDS011;4798;41.574;23.734;2024-01-27T12:59:44;0.30;;;0.20;;
9520;SDS011;4798;41.574;23.734;2024-01-27T13:02:13;7.70;;;0.83;;
9520;SDS011;4798;41.574;23.734;2024-01-27T13:04:42;0.60;;;0.40;;
9520;SDS011;4798;41.574;23.734;2024-01-27T13:07:12;0.83;;;0.43;;
9520;SDS011;4798;41.574;23.734;2024-01-27T13:09:41;0.40;;;0.30;;
9520;SDS011;4798;41.574;23.734;2024-01-27T13:12:10;0.40;;;0.30;;
9520;SDS011;4798;41.574;23.734;2024-01-27T13:14:38;0.60;;;0.60;;
9520;SDS011;4798;41.574;23.734;2024-01-27T13:17:07;0.30;;;0.20;;
9520;SDS011;4798;41.574;23.734;2024-01-27T13:19:36;0.43;;;0.27;;
9520;SDS011;4798;41.574;23.734;2024-01-27T13:22:05;1.37;;;0.40;;
9520;SDS011;4798;41.574;23.734;2024-01-27T13:24:35;0.53;;;0.40;;
9520;SDS011;4798;41.574;23.734;2024-01-27T13:27:05;0.40;;;0.37;;
9520;SDS011;4798;41.574;23.734;2024-01-27T13:29:35;0.40;;;0.30;;
9520;SDS011;4798;41.574;23.734;2024-01-27T13:32:03;0.83;;;0.83;;
9520;SDS011;4798;41.574;23.734;2024-01-27T13:34:32;0.60;;;0.50;;
9520;SDS011;4798;41.574;23.734;2024-01-27T13:37:02;0.50;;;0.30;;
9520;SDS011;4798;41.574;23.734;2024-01-27T13:39:31;0.40;;;0.30;;
9520;SDS011;4798;41.574;23.734;2024-01-27T13:42:02;0.43;;;0.30;;
9520;SDS011;4798;41.574;23.734;2024-01-27T13:44:31;0.30;;;0.20;;
9520;SDS011;4798;41.574;23.734;2024-01-27T13:47:02;0.40;;;0.30;;
9520;SDS011;4798;41.574;23.734;2024-01-27T13:49:31;0.30;;;0.20;;
9520;SDS011;4798;41.574;23.734;2024-01-27T13:52:01;0.40;;;0.20;;
9520;SDS011;4798;41.574;23.734;2024-01-27T13:54:32;0.40;;;0.30;;
9520;SDS011;4798;41.574;23.734;2024-01-27T13:57:03;0.40;;;0.30;;
9520;SDS011;4798;41.574;23.734;2024-01-27T13:59:32;0.40;;;0.30;;
9520;SDS011;4798;41.574;23.734;2024-01-27T14:02:00;0.40;;;0.30;;
9520;SDS011;4798;41.574;23.734;2024-01-27T14:04:29;0.70;;;0.60;;
9520;SDS011;4798;41.574;23.734;2024-01-27T14:06:59;0.73;;;0.40;;
9520;SDS011;4798;41.574;23.734;2024-01-27T14:09:30;0.40;;;0.30;;
9520;SDS011;4798;41.574;23.734;2024-01-27T14:11:58;1.00;;;0.30;;
9520;SDS011;4798;41.574;23.734;2024-01-27T14:14:29;0.40;;;0.30;;
9520;SDS011;4798;41.574;23.734;2024-01-27T14:16:58;0.40;;;0.30;;
9520;SDS011;4798;41.574;23.734;2024-01-27T14:19:27;0.60;;;0.40;;
9520;SDS011;4798;41.574;23.734;2024-01-27T14:21:55;0.40;;;0.30;;
9520;SDS011;4798;41.574;23.734;2024-01-27T14:24:24;0.33;;;0.20;;
9520;SDS011;4798;41.574;23.734;2024-01-27T14:26:53;0.50;;;0.30;;
9520;SDS011;4798;41.574;23.734;2024-01-27T14:29:21;0.40;;;0.30;;
9520;SDS011;4798;41.574;23.734;2024-01-27T14:31:52;0.40;;;0.40;;
9520;SDS011;4798;41.574;23.734;2024-01-27T14:34:20;0.40;;;0.30;;
9520;SDS011;4798;41.574;23.734;2024-01-27T14:36:49;0.50;;;0.40;;
9520;SDS011;4798;41.574;23.734;2024-01-27T14:39:19;3.07;;;0.77;;
9520;SDS011;4798;41.574;23.734;2024-01-27T14:41:50;0.40;;;0.20;;
9520;SDS011;4798;41.574;23.734;2024-01-27T14:44:19;1.13;;;0.30;;
9520;SDS011;4798;41.574;23.734;2024-01-27T14:46:49;0.60;;;0.40;;
9520;SDS011;4798;41.574;23.734;2024-01-27T14:49:19;1.07;;;0.30;;
9520;SDS011;4798;41.574;23.734;2024-01-27T14:51:49;0.53;;;0.47;;
9520;SDS011;4798;41.574;23.734;2024-01-27T14:54:18;0.50;;;0.50;;
9520;SDS011;4798;41.574;23.734;2024-01-27T14:56:47;0.60;;;0.47;;
9520;SDS011;4798;41.574;23.734;2024-01-27T14:59:15;1.83;;;0.80;;
9520;SDS011;4798;41.574;23.734;2024-01-27T15:01:45;5.13;;;1.23;;
9520;SDS011;4798;41.574;23.734;2024-01-27T15:04:15;1.13;;;1.03;;
9520;SDS011;4798;41.574;23.734;2024-01-27T15:06:45;2.10;;;0.60;;
9520;SDS011;4798;41.574;23.734;2024-01-27T15:09:14;0.73;;;0.73;;
9520;SDS011;4798;41.574;23.734;2024-01-27T15:11:44;1.20;;;1.10;;
9520;SDS011;4798;41.574;23.734;2024-01-27T15:14:12;0.80;;;0.70;;